Time;durP1;ratioP1;P1;durP2;ratioP2;P2;SDS_P1;SDS_P2;PMS_P1;PMS_P2;Temp;Humidity;BMP_temperature;BMP_pressure;BME280_temperature;BME280_humidity;BME280_pressure;Samples;Min_cycle;Max_cycle;Signal;HPM_P1;HPM_P2
2022/04/24 00:01:24;;;;;;;7.25;4.80;;;;;;;14.08;44.29;100170.31;5059466;28;20478;-61
2022/04/24 00:03:49;;;;;;;5.60;4.70;;;;;;;13.99;44.67;100163.38;5059672;28;20083;-61
2022/04/24 00:06:15;;;;;;;6.13;4.53;;;;;;;14.02;44.73;100163.31;5059676;28;20029;-61
2022/04/24 00:08:43;;;;;;;8.60;4.90;;;;;;;13.95;45.05;100156.34;5059493;28;20474;-61
2022/04/24 00:11:09;;;;;;;7.95;5.00;;;;;;;13.93;45.10;100165.25;5059649;28;20033;-61
2022/04/24 00:13:40;;;;;;;6.40;5.07;;;;;;;13.85;45.15;100162.69;5059524;28;20037;-61
2022/04/24 00:16:06;;;;;;;12.27;5.25;;;;;;;13.85;45.32;100161.81;5059851;28;20473;-61
2022/04/24 00:18:35;;;;;;;7.18;5.07;;;;;;;13.78;45.38;100156.56;5059749;28;20044;-60
2022/04/24 00:21:01;;;;;;;5.53;4.70;;;;;;;13.78;46.18;100153.91;5059432;28;20029;-61
2022/04/24 00:23:27;;;;;;;8.32;4.93;;;;;;;13.75;46.29;100155.75;5059093;28;20049;-61
2022/04/24 00:25:53;;;;;;;7.07;4.72;;;;;;;13.70;45.77;100146.94;5059645;28;20029;-61
2022/04/24 00:28:19;;;;;;;6.22;4.85;;;;;;;13.66;46.09;100147.88;5059447;28;20070;-61
2022/04/24 00:30:44;;;;;;;6.65;5.20;;;;;;;13.60;45.95;100142.66;5059335;28;20032;-61
2022/04/24 00:33:09;;;;;;;6.40;5.20;;;;;;;13.56;46.03;100146.25;5059211;28;20461;-61
2022/04/24 00:35:35;;;;;;;6.10;4.85;;;;;;;13.52;46.67;100148.94;5079770;28;20020;-61
2022/04/24 00:38:00;;;;;;;6.65;5.18;;;;;;;13.40;46.58;100143.78;5061320;28;20374;-61
2022/04/24 00:40:26;;;;;;;7.82;5.07;;;;;;;13.28;46.77;100149.25;5079393;28;20039;-61
2022/04/24 00:42:51;;;;;;;9.25;5.25;;;;;;;13.22;46.92;100141.31;5079362;28;20031;-61
2022/04/24 00:45:17;;;;;;;7.47;5.28;;;;;;;13.24;46.64;100147.53;5079294;28;20043;-62
2022/04/24 00:47:42;;;;;;;7.50;5.22;;;;;;;13.17;47.32;100141.38;5079087;28;20028;-61
2022/04/24 00:50:08;;;;;;;7.72;5.20;;;;;;;13.10;47.49;100144.97;5079125;28;20020;-61
2022/04/24 00:52:35;;;;;;;6.00;5.03;;;;;;;13.08;47.19;100140.59;5079148;28;20035;-61
2022/04/24 00:55:01;;;;;;;6.32;5.18;;;;;;;13.06;47.62;100140.63;5079121;28;20111;-61
2022/04/24 00:57:26;;;;;;;7.63;5.50;;;;;;;13.05;47.65;100138.84;5061039;28;20370;-61
2022/04/24 00:59:53;;;;;;;7.47;5.38;;;;;;;12.97;47.60;100138.91;5079101;28;20031;-61
2022/04/24 01:02:18;;;;;;;6.40;5.20;;;;;;;12.91;47.72;100144.31;5079002;28;20020;-61
2022/04/24 01:04:44;;;;;;;8.70;5.47;;;;;;;12.88;48.60;100139.03;5079063;28;20028;-60
2022/04/24 01:07:10;;;;;;;6.63;5.03;;;;;;;12.83;48.27;100137.31;5079133;28;20027;-61
2022/04/24 01:09:36;;;;;;;7.18;5.28;;;;;;;12.80;48.96;100148.81;5078812;28;20474;-61
2022/04/24 01:12:02;;;;;;;6.20;5.10;;;;;;;12.74;49.28;100140.94;5075267;28;20024;-61
2022/04/24 01:14:31;;;;;;;7.43;5.70;;;;;;;12.74;48.75;100151.53;5076014;28;20025;-61
2022/04/24 01:16:58;;;;;;;6.88;5.07;;;;;;;12.64;48.93;100144.56;5075611;28;20031;-61
2022/04/24 01:19:25;;;;;;;7.10;5.30;;;;;;;12.60;49.10;100137.53;5075657;28;20032;-61
2022/04/24 01:21:51;;;;;;;6.45;5.22;;;;;;;12.53;48.77;100142.00;5075632;28;20035;-61
2022/04/24 01:24:21;;;;;;;6.85;5.35;;;;;;;12.54;50.18;100149.06;5075487;28;20044;-61
2022/04/24 01:26:48;;;;;;;7.32;5.55;;;;;;;12.53;49.20;100142.00;5075595;28;20110;-61
2022/04/24 01:29:14;;;;;;;7.38;5.53;;;;;;;12.47;49.41;100148.25;5075653;28;20017;-61
2022/04/24 01:31:40;;;;;;;6.35;5.10;;;;;;;12.49;49.58;100157.03;5075492;28;20032;-61
2022/04/24 01:34:06;;;;;;;8.52;5.72;;;;;;;12.44;49.89;100155.34;5075580;28;20092;-61
2022/04/24 01:36:32;;;;;;;8.57;5.47;;;;;;;12.45;49.84;100157.97;5075238;28;20068;-61
2022/04/24 01:38:57;;;;;;;6.78;5.18;;;;;;;12.44;49.61;100157.97;5075408;28;20025;-61
2022/04/24 01:41:23;;;;;;;6.95;5.50;;;;;;;12.42;49.30;100150.06;5075430;28;20056;-61
2022/04/24 01:43:49;;;;;;;8.38;6.15;;;;;;;12.39;49.32;100155.38;5075274;28;20472;-61
2022/04/24 01:46:15;;;;;;;7.22;5.57;;;;;;;12.42;50.22;100155.34;5075267;28;20111;-61
2022/04/24 01:48:40;;;;;;;6.05;5.18;;;;;;;12.44;49.43;100150.03;5074977;28;20440;-62
2022/04/24 01:51:08;;;;;;;8.52;5.45;;;;;;;12.39;49.38;100146.56;5075299;28;20016;-61
2022/04/24 01:53:34;;;;;;;8.68;5.55;;;;;;;12.33;49.63;100152.75;5075072;28;20111;-61
2022/04/24 01:56:02;;;;;;;7.22;5.57;;;;;;;12.24;50.04;100148.41;5075129;28;20478;-61
2022/04/24 01:58:29;;;;;;;6.95;5.72;;;;;;;12.20;51.07;100149.31;5074981;28;20029;-61
2022/04/24 02:00:55;;;;;;;9.00;5.53;;;;;;;12.22;50.76;100146.69;5075053;28;20066;-60
2022/04/24 02:03:22;;;;;;;6.90;5.50;;;;;;;12.14;50.45;100146.72;5074724;28;20032;-61
2022/04/24 02:05:47;;;;;;;7.25;5.63;;;;;;;12.13;50.50;100146.75;5075042;28;20025;-61
2022/04/24 02:08:13;;;;;;;8.40;5.90;;;;;;;12.07;50.90;100152.06;5074731;28;20040;-61
2022/04/24 02:10:39;;;;;;;7.72;5.78;;;;;;;12.03;51.23;100145.91;5074422;28;20025;-60
2022/04/24 02:13:04;;;;;;;7.97;5.53;;;;;;;12.00;50.86;100144.16;5074212;28;20048;-60
2022/04/24 02:15:30;;;;;;;7.65;5.50;;;;;;;11.95;51.03;100151.28;5074091;28;20159;-60
2022/04/24 02:17:55;;;;;;;7.13;5.70;;;;;;;11.99;51.08;100145.06;5074069;28;20487;-61
2022/04/24 02:20:21;;;;;;;7.70;5.57;;;;;;;11.94;50.84;100156.56;5074662;28;20032;-61
2022/04/24 02:22:47;;;;;;;7.65;5.85;;;;;;;11.93;50.74;100155.69;5073265;28;20028;-61
2022/04/24 02:25:15;;;;;;;7.93;6.50;;;;;;;11.88;50.95;100160.13;5074128;28;20064;-60
2022/04/24 02:27:40;;;;;;;7.80;6.20;;;;;;;11.88;51.92;100151.31;5074423;28;20090;-60
2022/04/24 02:30:06;;;;;;;7.40;5.85;;;;;;;11.86;51.46;100155.72;5074349;28;20163;-60
2022/04/24 02:32:33;;;;;;;8.73;5.95;;;;;;;11.82;52.35;100152.19;5074183;28;20028;-61
2022/04/24 02:34:59;;;;;;;7.13;6.10;;;;;;;11.79;51.82;100146.91;5074396;28;20089;-61
2022/04/24 02:37:25;;;;;;;8.90;6.07;;;;;;;11.82;52.40;100146.00;5074160;28;20107;-60
2022/04/24 02:39:51;;;;;;;7.05;6.20;;;;;;;11.79;51.60;100153.09;5074377;28;20024;-60
2022/04/24 02:42:16;;;;;;;9.02;6.35;;;;;;;11.78;51.94;100139.88;5074082;28;20040;-60
2022/04/24 02:44:42;;;;;;;7.43;6.25;;;;;;;11.77;52.12;100146.03;5073961;28;20525;-60
2022/04/24 02:47:07;;;;;;;7.88;6.15;;;;;;;11.77;51.96;100154.84;5073949;28;20033;-60
2022/04/24 02:49:32;;;;;;;9.07;6.60;;;;;;;11.80;52.40;100151.31;5073883;28;20028;-60
2022/04/24 02:51:58;;;;;;;9.48;6.13;;;;;;;11.86;51.88;100153.06;5073914;28;20470;-60
2022/04/24 02:54:23;;;;;;;7.53;6.25;;;;;;;11.84;51.81;100150.44;5073874;28;20105;-60
2022/04/24 02:56:48;;;;;;;7.88;6.55;;;;;;;11.87;51.93;100155.72;5073979;28;20056;-60
2022/04/24 02:59:16;;;;;;;7.82;6.38;;;;;;;11.91;52.18;100159.25;5073780;28;20119;-60
2022/04/24 03:01:42;;;;;;;10.52;6.65;;;;;;;11.88;52.35;100159.25;5073698;28;20534;-60
2022/04/24 03:04:07;;;;;;;8.80;6.53;;;;;;;11.91;52.02;100157.47;5073582;28;20107;-61
2022/04/24 03:06:33;;;;;;;7.95;6.28;;;;;;;11.85;51.56;100156.59;5073832;28;20410;-60
2022/04/24 03:08:58;;;;;;;8.13;6.13;;;;;;;11.84;52.60;100165.44;5073625;28;20359;-61
2022/04/24 03:11:23;;;;;;;8.32;7.18;;;;;;;11.75;52.30;100164.56;5073660;28;20377;-60
2022/04/24 03:13:49;;;;;;;8.68;6.93;;;;;;;11.72;52.39;100161.94;5073486;28;20374;-60
2022/04/24 03:16:14;;;;;;;10.20;6.85;;;;;;;11.70;52.28;100166.38;5073239;28;20033;-61
2022/04/24 03:18:40;;;;;;;10.65;6.97;;;;;;;11.65;53.33;100161.97;5073462;28;20036;-60
2022/04/24 03:21:05;;;;;;;9.85;7.13;;;;;;;11.58;52.44;100158.47;5073343;28;20035;-60
2022/04/24 03:23:31;;;;;;;9.70;6.65;;;;;;;11.57;52.50;100172.59;5073125;28;20035;-61
2022/04/24 03:25:57;;;;;;;9.00;6.78;;;;;;;11.51;53.15;100162.03;5073565;28;20078;-60
2022/04/24 03:28:22;;;;;;;9.23;6.90;;;;;;;11.45;52.69;100167.34;5073360;28;20102;-60
2022/04/24 03:30:47;;;;;;;10.18;7.60;;;;;;;11.39;53.00;100170.00;5073295;28;20470;-60
2022/04/24 03:33:13;;;;;;;8.40;6.72;;;;;;;11.33;53.29;100165.63;5073401;28;20107;-60
2022/04/24 03:35:38;;;;;;;9.98;7.45;;;;;;;11.31;53.24;100166.53;5073257;28;20024;-64
2022/04/24 03:38:04;;;;;;;12.50;7.15;;;;;;;11.21;54.15;100160.38;5073488;28;20069;-60
2022/04/24 03:40:30;;;;;;;8.20;6.65;;;;;;;11.17;54.38;100166.56;5073484;28;20077;-60
2022/04/24 03:42:55;;;;;;;8.65;7.10;;;;;;;11.12;54.21;100166.56;5073255;28;20024;-60
2022/04/24 03:45:20;;;;;;;10.55;7.65;;;;;;;11.00;54.83;100163.94;5073164;28;20028;-60
2022/04/24 03:47:47;;;;;;;10.80;7.05;;;;;;;11.00;55.76;100161.28;5073248;28;20024;-61
2022/04/24 03:50:13;;;;;;;9.20;6.88;;;;;;;10.99;55.73;100164.84;5073332;28;20028;-61
2022/04/24 03:52:39;;;;;;;9.00;7.28;;;;;;;10.94;55.27;100167.47;5072988;28;20044;-61
2022/04/24 03:55:06;;;;;;;8.23;7.13;;;;;;;10.92;55.85;100161.34;5073309;28;20028;-61
2022/04/24 03:57:31;;;;;;;8.32;7.30;;;;;;;10.91;55.40;100170.13;5072907;28;20036;-60
2022/04/24 03:59:57;;;;;;;10.73;7.30;;;;;;;10.89;55.46;100163.97;5073053;28;20035;-60
2022/04/24 04:02:23;;;;;;;8.63;6.93;;;;;;;10.90;55.99;100162.22;5073007;28;20027;-60
2022/04/24 04:04:49;;;;;;;11.15;7.13;;;;;;;10.92;56.10;100161.34;5073000;28;20029;-60
2022/04/24 04:07:14;;;;;;;9.30;7.18;;;;;;;10.84;56.52;100160.47;5072916;28;20400;-60
2022/04/24 04:09:40;;;;;;;10.43;7.30;;;;;;;10.80;56.08;100169.28;5073015;28;20470;-60
2022/04/24 04:12:06;;;;;;;9.90;7.53;;;;;;;10.80;56.31;100163.13;5072921;28;20074;-60
2022/04/24 04:14:32;;;;;;;8.43;7.05;;;;;;;10.78;56.28;100163.09;5073051;28;20070;-60
2022/04/24 04:16:57;;;;;;;8.00;6.57;;;;;;;10.78;56.38;100161.34;5072965;28;20466;-60
2022/04/24 04:19:24;;;;;;;9.30;7.68;;;;;;;10.73;56.55;100167.50;5072733;28;20021;-61
2022/04/24 04:21:49;;;;;;;9.98;7.00;;;;;;;10.69;56.85;100164.00;5071938;28;20028;-61
2022/04/24 04:24:16;;;;;;;9.93;7.30;;;;;;;10.68;56.76;100171.94;5071850;28;20517;-60
2022/04/24 04:26:41;;;;;;;8.32;6.85;;;;;;;10.65;57.03;100170.16;5072303;28;20086;-61
2022/04/24 04:29:07;;;;;;;10.90;6.82;;;;;;;10.70;57.35;100178.06;5072063;28;20033;-61
2022/04/24 04:31:33;;;;;;;7.90;6.57;;;;;;;10.69;57.37;100178.97;5072305;28;20374;-61
2022/04/24 04:33:58;;;;;;;9.02;6.75;;;;;;;10.69;57.65;100173.69;5072006;28;20024;-61
2022/04/24 04:36:23;;;;;;;10.00;7.07;;;;;;;10.66;57.41;100171.94;5054416;28;20071;-60
2022/04/24 04:38:49;;;;;;;8.82;7.07;;;;;;;10.67;57.58;100184.25;5072289;28;20111;-60
2022/04/24 04:41:14;;;;;;;8.48;6.97;;;;;;;10.57;57.54;100181.59;5072367;28;20461;-60
2022/04/24 04:43:45;;;;;;;9.45;7.43;;;;;;;10.43;57.99;100185.13;5072062;28;20067;-60
2022/04/24 04:46:10;;;;;;;9.30;6.80;;;;;;;10.43;58.14;100189.53;5074043;28;20070;-60
2022/04/24 04:48:36;;;;;;;10.55;7.28;;;;;;;10.42;58.34;100191.28;5075871;28;20020;-60
2022/04/24 04:51:02;;;;;;;11.90;7.40;;;;;;;10.46;58.83;100200.09;5075695;28;20025;-60
2022/04/24 04:53:28;;;;;;;9.88;7.40;;;;;;;10.44;58.25;100199.22;5075544;28;20021;-60
2022/04/24 04:55:53;;;;;;;9.25;6.95;;;;;;;10.45;58.56;100193.06;5075527;28;20125;-60
2022/04/24 04:58:19;;;;;;;9.30;7.07;;;;;;;10.51;59.05;100199.22;5075586;28;20032;-60
2022/04/24 05:00:44;;;;;;;11.63;7.07;;;;;;;10.55;58.53;100200.09;5075643;28;20347;-60
2022/04/24 05:03:10;;;;;;;9.80;6.95;;;;;;;10.62;58.49;100193.97;5075543;28;20424;-60
2022/04/24 05:05:35;;;;;;;8.65;6.72;;;;;;;10.71;57.69;100204.53;5075357;28;20012;-60
2022/04/24 05:08:02;;;;;;;10.10;7.07;;;;;;;10.70;57.35;100201.84;5075327;28;20108;-61
2022/04/24 05:10:27;;;;;;;8.45;6.65;;;;;;;10.69;58.95;100213.31;5075275;28;20039;-60
2022/04/24 05:12:52;;;;;;;8.55;6.45;;;;;;;10.78;58.69;100216.81;5075325;28;20029;-60
2022/04/24 05:15:20;;;;;;;9.65;6.78;;;;;;;10.82;57.79;100216.84;5075310;28;20099;-60
2022/04/24 05:17:45;;;;;;;9.10;6.93;;;;;;;10.88;57.64;100224.78;5075225;28;20169;-60
2022/04/24 05:20:12;;;;;;;7.97;6.38;;;;;;;11.02;57.70;100226.53;5075352;28;20142;-60
2022/04/24 05:22:38;;;;;;;8.48;6.47;;;;;;;11.12;56.58;100223.84;5074978;28;20024;-61
2022/04/24 05:25:05;;;;;;;10.43;6.93;;;;;;;11.24;56.67;100224.72;5074664;28;20159;-61
2022/04/24 05:27:31;;;;;;;9.13;6.72;;;;;;;11.33;56.46;100228.22;5074920;28;20029;-60
2022/04/24 05:29:56;;;;;;;9.00;6.50;;;;;;;11.40;55.74;100222.06;5075199;28;20164;-60
2022/04/24 05:32:22;;;;;;;9.45;6.57;;;;;;;11.47;55.66;100229.06;5074646;28;20029;-60
2022/04/24 05:34:47;;;;;;;8.10;6.47;;;;;;;11.52;55.69;100222.91;5075042;28;20024;-60
2022/04/24 05:37:13;;;;;;;12.38;6.53;;;;;;;11.56;55.52;100217.56;5074710;28;20021;-60
2022/04/24 05:39:38;;;;;;;7.95;6.28;;;;;;;11.71;55.13;100234.28;5074805;28;20428;-60
2022/04/24 05:42:04;;;;;;;7.88;6.22;;;;;;;11.89;55.17;100230.72;5074731;28;20029;-61
2022/04/24 05:44:29;;;;;;;9.23;6.45;;;;;;;11.91;53.96;100230.72;5074698;28;20549;-60
2022/04/24 05:46:55;;;;;;;7.43;5.97;;;;;;;11.99;53.78;100229.81;5074864;28;20115;-60
2022/04/24 05:49:20;;;;;;;9.57;6.60;;;;;;;12.03;54.02;100235.94;5074631;28;20470;-60
2022/04/24 05:51:46;;;;;;;8.18;6.03;;;;;;;12.09;53.52;100243.00;5074654;28;20504;-60
2022/04/24 05:54:12;;;;;;;8.38;6.35;;;;;;;12.19;52.79;100234.97;5074419;28;20052;-61
2022/04/24 05:56:38;;;;;;;9.90;5.90;;;;;;;12.35;53.01;100237.53;5074539;28;20059;-60
2022/04/24 05:59:10;;;;;;;7.20;6.10;;;;;;;12.44;53.00;100233.06;5074424;28;20036;-60
2022/04/24 06:01:35;;;;;;;10.57;6.60;;;;;;;12.36;51.98;100241.94;5074432;28;20159;-60
2022/04/24 06:04:01;;;;;;;8.75;5.60;;;;;;;12.44;52.70;100246.31;5074413;28;20064;-60
2022/04/24 06:06:29;;;;;;;8.75;5.93;;;;;;;12.57;51.55;100232.97;5074322;28;20056;-60
2022/04/24 06:08:54;;;;;;;10.50;5.75;;;;;;;12.77;52.17;100247.84;5074264;28;20043;-61
2022/04/24 06:11:20;;;;;;;11.48;6.38;;;;;;;12.89;50.66;100254.81;5074339;28;20025;-61
2022/04/24 06:13:45;;;;;;;7.32;6.05;;;;;;;13.04;50.92;100249.38;5074224;28;20070;-60
2022/04/24 06:16:11;;;;;;;10.27;5.97;;;;;;;13.20;50.65;100252.78;5074143;28;20021;-60
2022/04/24 06:18:36;;;;;;;8.88;6.22;;;;;;;13.26;49.19;100246.56;5074075;28;20029;-60
2022/04/24 06:21:02;;;;;;;6.50;5.55;;;;;;;13.25;49.00;100248.31;5074004;28;20519;-60
2022/04/24 06:23:29;;;;;;;8.52;5.80;;;;;;;13.39;49.65;100252.63;5074050;28;20428;-60
2022/04/24 06:25:54;;;;;;;8.57;5.78;;;;;;;13.52;49.32;100251.59;5073485;28;20124;-60
2022/04/24 06:28:20;;;;;;;8.52;5.93;;;;;;;13.54;48.54;100255.13;5073879;28;20107;-60
2022/04/24 06:30:47;;;;;;;8.88;6.05;;;;;;;13.56;48.17;100250.66;5073824;28;20021;-61
2022/04/24 06:33:14;;;;;;;8.25;6.13;;;;;;;13.63;47.97;100255.00;5073866;28;20029;-60
2022/04/24 06:35:39;;;;;;;7.70;5.60;;;;;;;13.66;47.56;100262.94;5073897;28;20024;-60
2022/04/24 06:38:05;;;;;;;7.85;5.47;;;;;;;13.59;47.61;100263.03;5073328;28;20074;-60
2022/04/24 06:40:31;;;;;;;9.88;5.68;;;;;;;13.58;47.92;100250.66;5073674;28;20082;-61
2022/04/24 06:42:58;;;;;;;8.57;6.03;;;;;;;13.76;47.06;100255.75;5073412;28;20024;-60
2022/04/24 06:45:28;;;;;;;7.85;5.45;;;;;;;13.93;46.69;100258.19;5073669;28;20465;-60
2022/04/24 06:47:59;;;;;;;9.18;5.78;;;;;;;14.06;46.66;100265.13;5073485;28;20029;-60
2022/04/24 06:50:31;;;;;;;10.80;5.85;;;;;;;14.24;46.12;100256.91;5073677;28;20211;-61
2022/04/24 06:53:08;;;;;;;9.27;5.88;;;;;;;14.48;45.80;100276.06;5073158;28;20028;-61
2022/04/24 06:55:36;;;;;;;7.90;6.05;;;;;;;14.70;45.59;100264.25;5073352;28;20135;-61
2022/04/24 06:58:03;;;;;;;10.07;5.95;;;;;;;14.69;44.44;100259.84;5073250;28;20101;-61
2022/04/24 07:00:30;;;;;;;7.32;6.10;;;;;;;14.74;44.27;100270.41;5073507;28;20016;-60
2022/04/24 07:02:56;;;;;;;7.95;6.05;;;;;;;14.91;44.06;100267.47;5073124;28;20494;-60
2022/04/24 07:05:23;;;;;;;7.18;5.90;;;;;;;15.07;44.07;100268.94;5073191;28;20035;-61
2022/04/24 07:07:49;;;;;;;10.30;6.25;;;;;;;15.28;43.43;100260.59;5072487;28;20036;-60
2022/04/24 07:10:15;;;;;;;10.00;6.10;;;;;;;15.53;43.18;100266.34;5072898;28;20113;-61
2022/04/24 07:12:51;;;;;;;7.43;6.15;;;;;;;15.74;42.82;100272.22;5073264;28;20025;-61
2022/04/24 07:15:18;;;;;;;10.60;6.38;;;;;;;15.85;41.85;100267.56;5072931;28;20469;-61
2022/04/24 07:17:44;;;;;;;8.10;5.90;;;;;;;16.01;42.19;100262.78;5072967;28;20035;-61
2022/04/24 07:20:11;;;;;;;7.43;5.88;;;;;;;16.20;40.94;100263.28;5072777;28;20028;-61
2022/04/24 07:22:51;;;;;;;8.02;5.72;;;;;;;16.27;40.91;100267.53;5072821;28;20025;-61
2022/04/24 07:25:18;;;;;;;12.57;6.28;;;;;;;16.20;40.87;100273.94;5054991;28;20446;-60
2022/04/24 07:27:44;;;;;;;8.23;6.43;;;;;;;16.35;41.13;100278.91;5072811;28;20034;-61
2022/04/24 07:30:14;;;;;;;11.73;6.32;;;;;;;16.44;40.74;100276.03;5054826;28;20470;-61
2022/04/24 07:32:41;;;;;;;12.95;6.40;;;;;;;16.71;40.25;100282.56;5072611;28;20033;-61
2022/04/24 07:35:09;;;;;;;9.52;6.07;;;;;;;16.77;39.84;100284.22;5072894;28;20116;-61
2022/04/24 07:37:35;;;;;;;8.25;6.03;;;;;;;16.83;39.58;100280.53;5072560;28;20028;-61
2022/04/24 07:40:00;;;;;;;9.15;6.07;;;;;;;17.03;39.73;100283.59;5072843;28;20111;-61
2022/04/24 07:42:25;;;;;;;9.35;6.00;;;;;;;17.32;39.15;100288.19;5072792;28;20021;-61
2022/04/24 07:44:51;;;;;;;11.13;5.95;;;;;;;17.50;38.01;100285.03;5072826;28;20027;-61
2022/04/24 07:47:16;;;;;;;8.50;6.15;;;;;;;17.41;37.65;100282.63;5072555;28;20024;-61
2022/04/24 07:49:42;;;;;;;8.15;6.07;;;;;;;17.32;37.45;100280.19;5072365;28;20028;-61
2022/04/24 07:52:07;;;;;;;9.10;6.18;;;;;;;17.35;38.01;100280.13;5054496;28;20025;-61
2022/04/24 07:54:33;;;;;;;6.90;5.95;;;;;;;17.33;37.60;100281.06;5072671;28;20059;-61
2022/04/24 07:56:58;;;;;;;7.15;6.10;;;;;;;17.34;37.80;100277.47;5072370;28;20027;-61
2022/04/24 07:59:24;;;;;;;9.13;6.07;;;;;;;17.46;37.85;100286.03;5072430;28;20032;-61
2022/04/24 08:01:51;;;;;;;9.10;6.18;;;;;;;17.75;37.01;100285.28;5072112;28;20045;-61
2022/04/24 08:04:20;;;;;;;11.52;6.30;;;;;;;17.96;36.89;100286.47;5072237;28;20101;-60
2022/04/24 08:06:45;;;;;;;11.55;6.47;;;;;;;18.10;36.12;100287.88;5072426;28;20028;-60
2022/04/24 08:09:11;;;;;;;9.25;6.43;;;;;;;18.24;36.14;100291.91;5072011;28;20162;-61
2022/04/24 08:11:36;;;;;;;10.25;6.45;;;;;;;18.39;35.40;100287.91;5072573;28;20487;-61
2022/04/24 08:14:02;;;;;;;10.00;6.50;;;;;;;18.43;35.75;100288.69;5054198;28;20028;-61
2022/04/24 08:16:27;;;;;;;10.18;6.63;;;;;;;18.59;34.95;100287.28;5072215;28;20025;-61
2022/04/24 08:18:53;;;;;;;9.88;6.55;;;;;;;18.67;35.42;100277.22;5072312;28;20048;-61
2022/04/24 08:21:18;;;;;;;11.50;6.53;;;;;;;18.63;34.61;100288.94;5076327;28;20402;-61
2022/04/24 08:23:44;;;;;;;9.90;7.05;;;;;;;18.85;34.79;100277.59;5076444;28;20032;-61
2022/04/24 08:26:10;;;;;;;7.63;6.28;;;;;;;18.98;34.68;100286.97;5075745;28;20131;-61
2022/04/24 08:28:36;;;;;;;10.15;6.78;;;;;;;19.24;34.34;100292.34;5076512;28;20102;-61
2022/04/24 08:31:02;;;;;;;9.93;6.47;;;;;;;19.55;33.59;100285.03;5076061;28;20040;-61
2022/04/24 08:33:28;;;;;;;8.27;6.78;;;;;;;19.65;33.70;100289.16;5076252;28;20025;-61
2022/04/24 08:35:53;;;;;;;10.25;7.03;;;;;;;19.80;33.13;100291.31;5075899;28;20096;-61
2022/04/24 08:38:37;;;;;;;11.90;6.70;;;;;;;20.05;32.38;100296.66;5076224;28;20021;-61
2022/04/24 08:41:03;;;;;;;8.85;6.78;;;;;;;20.14;32.56;100290.06;5075947;28;20100;-61
2022/04/24 08:43:28;;;;;;;10.57;6.93;;;;;;;20.33;32.67;100291.13;5075909;28;20170;-61
2022/04/24 08:45:54;;;;;;;8.35;6.93;;;;;;;20.44;32.24;100294.28;5075889;28;20107;-61
2022/04/24 08:48:19;;;;;;;10.10;6.93;;;;;;;20.50;31.54;100293.19;5075756;28;20031;-61
2022/04/24 08:50:46;;;;;;;10.02;6.82;;;;;;;20.61;31.59;100295.47;5075877;28;20033;-61
2022/04/24 08:53:12;;;;;;;8.90;7.13;;;;;;;20.75;31.48;100279.66;5075812;28;20020;-61
2022/04/24 08:55:38;;;;;;;9.30;6.90;;;;;;;20.87;31.67;100286.34;5076018;28;20093;-61
2022/04/24 08:58:04;;;;;;;11.45;7.30;;;;;;;20.91;30.75;100301.41;5075480;28;20499;-61
2022/04/24 09:00:30;;;;;;;12.10;7.25;;;;;;;20.82;30.73;100294.59;5075942;28;20056;-61
2022/04/24 09:02:59;;;;;;;11.45;7.10;;;;;;;20.82;30.50;100296.41;5075541;28;20385;-61
2022/04/24 09:05:24;;;;;;;10.00;6.97;;;;;;;20.89;30.72;100305.97;5075517;28;20021;-61
2022/04/24 09:07:52;;;;;;;9.15;7.20;;;;;;;21.14;30.64;100303.16;5075336;28;20496;-61
2022/04/24 09:10:19;;;;;;;8.80;6.85;;;;;;;21.24;30.91;100296.44;5075420;28;20040;-61
2022/04/24 09:12:45;;;;;;;10.10;6.90;;;;;;;21.66;30.46;100306.31;5075356;28;20028;-61
2022/04/24 09:15:15;;;;;;;10.50;7.30;;;;;;;21.87;29.47;100301.81;5075286;28;20055;-61
2022/04/24 09:17:41;;;;;;;9.68;7.03;;;;;;;21.78;29.42;100296.84;5075169;28;20024;-61
2022/04/24 09:20:18;;;;;;;11.70;7.68;;;;;;;21.98;29.72;100302.22;5074878;28;20025;-61
2022/04/24 09:22:45;;;;;;;8.63;7.20;;;;;;;22.22;28.67;100294.88;5075460;28;20435;-61
2022/04/24 09:25:12;;;;;;;12.10;7.10;;;;;;;22.25;28.49;100303.69;5075095;28;20044;-61
2022/04/24 09:27:37;;;;;;;9.30;7.47;;;;;;;22.17;28.12;100297.78;5076182;28;20031;-61
2022/04/24 09:30:11;;;;;;;10.57;7.50;;;;;;;22.37;29.04;100294.16;5076068;28;20454;-61
2022/04/24 09:32:51;;;;;;;10.07;7.38;;;;;;;22.50;28.88;100291.78;5074352;28;20126;-61
2022/04/24 09:35:29;;;;;;;10.85;7.43;;;;;;;22.37;27.95;100302.25;5056981;28;20027;-61
2022/04/24 09:38:10;;;;;;;9.55;7.53;;;;;;;22.29;28.51;100299.03;5074935;28;20064;-61
2022/04/24 09:40:46;;;;;;;11.43;7.90;;;;;;;22.46;28.38;100288.34;5074682;28;20040;-61
2022/04/24 09:43:16;;;;;;;10.15;7.57;;;;;;;22.46;28.28;100291.03;5074787;28;20029;-61
2022/04/24 09:45:47;;;;;;;11.38;7.82;;;;;;;22.19;28.21;100297.72;5074828;28;20024;-61
2022/04/24 09:48:21;;;;;;;9.13;7.53;;;;;;;22.26;28.17;100291.09;5074751;28;20056;-61
2022/04/24 09:50:51;;;;;;;11.07;7.82;;;;;;;22.29;28.48;100292.78;5074770;28;20388;-61
2022/04/24 09:53:19;;;;;;;12.00;8.15;;;;;;;22.19;27.87;100293.22;5075018;28;20074;-61
2022/04/24 09:55:45;;;;;;;11.40;7.40;;;;;;;22.40;28.22;100290.47;5074819;28;20107;-62
2022/04/24 09:58:15;;;;;;;10.50;7.32;;;;;;;22.45;28.51;100297.38;5074523;28;20043;-61
2022/04/24 10:00:41;;;;;;;13.68;8.27;;;;;;;22.86;28.29;100304.41;5074498;28;20024;-62
2022/04/24 10:03:08;;;;;;;13.27;7.80;;;;;;;23.40;27.56;100291.88;5074346;28;20056;-61
2022/04/24 10:05:33;;;;;;;13.00;8.18;;;;;;;23.22;26.70;100299.06;5074591;28;20028;-61
2022/04/24 10:08:01;;;;;;;10.65;8.07;;;;;;;23.23;26.39;100285.50;5074277;28;20024;-61
2022/04/24 10:10:27;;;;;;;12.55;8.55;;;;;;;23.05;27.01;100294.53;5074344;28;20056;-61
2022/04/24 10:12:53;;;;;;;11.02;7.90;;;;;;;23.28;27.34;100292.47;5074172;28;20458;-61
2022/04/24 10:15:21;;;;;;;9.07;8.00;;;;;;;23.55;26.56;100290.19;5074285;28;20028;-61
2022/04/24 10:18:20;;;;;;;11.85;8.70;;;;;;;23.38;26.78;100302.75;5074074;28;20090;-61
2022/04/24 10:20:59;;;;;;;9.65;8.05;;;;;;;23.47;26.18;100298.69;5074149;28;20553;-61
2022/04/24 10:23:32;;;;;;;15.25;8.30;;;;;;;23.29;26.35;100296.91;5073910;28;20482;-61
2022/04/24 10:25:57;;;;;;;10.02;7.90;;;;;;;23.48;26.15;100303.13;5073999;28;20040;-61
2022/04/24 10:28:27;;;;;;;9.65;7.43;;;;;;;23.53;27.01;100317.25;5073862;28;20078;-61
2022/04/24 10:31:00;;;;;;;10.98;7.70;;;;;;;23.40;25.65;100311.59;5073899;28;20048;-61
2022/04/24 10:33:36;;;;;;;11.95;8.20;;;;;;;23.39;26.45;100309.88;5074037;28;20378;-62
2022/04/24 10:36:15;;;;;;;9.35;7.70;;;;;;;23.43;26.05;100299.81;5073764;28;20426;-61
2022/04/24 10:38:52;;;;;;;10.30;7.20;;;;;;;23.61;26.61;100295.28;5073766;28;20028;-61
2022/04/24 10:41:27;;;;;;;13.20;7.30;;;;;;;23.69;25.71;100304.75;5073690;28;20411;-61
2022/04/24 10:43:57;;;;;;;9.68;6.97;;;;;;;23.61;25.51;100300.69;5072668;28;20028;-61
2022/04/24 10:46:33;;;;;;;8.73;6.85;;;;;;;23.83;25.73;100305.84;5073429;28;20466;-61
2022/04/24 10:49:11;;;;;;;9.13;6.82;;;;;;;23.89;24.77;100300.13;5055599;28;20115;-61
2022/04/24 10:51:40;;;;;;;8.35;6.22;;;;;;;23.94;26.03;100306.16;5073451;28;20111;-61
2022/04/24 10:54:08;;;;;;;11.15;6.38;;;;;;;23.80;24.84;100311.41;5073449;28;20063;-61
2022/04/24 10:56:35;;;;;;;9.82;6.15;;;;;;;23.94;26.25;100303.47;5073189;28;20466;-61
2022/04/24 10:59:16;;;;;;;8.73;6.18;;;;;;;24.15;24.60;100309.50;5073571;28;20420;-61
2022/04/24 11:01:51;;;;;;;8.73;6.75;;;;;;;24.24;25.21;100304.50;5073490;28;20024;-61
2022/04/24 11:04:18;;;;;;;11.05;7.68;;;;;;;24.37;24.82;100296.63;5073471;28;20028;-61
2022/04/24 11:06:58;;;;;;;9.00;6.40;;;;;;;24.51;25.28;100303.09;5073163;28;20028;-62
2022/04/24 11:09:29;;;;;;;9.30;6.50;;;;;;;24.14;24.64;100305.06;5072869;28;20465;-61
2022/04/24 11:12:01;;;;;;;8.18;6.25;;;;;;;24.11;24.95;100299.84;5073100;28;20523;-61
2022/04/24 11:14:27;;;;;;;;;;;;;;;24.45;25.76;100307.91;5073617;28;20488;-61
2022/04/24 11:16:56;;;;;;;10.27;6.63;;;;;;;24.30;24.65;100300.59;5072992;28;19913;-61
2022/04/24 11:19:42;;;;;;;7.85;6.30;;;;;;;24.07;25.52;100303.66;5073035;28;20044;-61
2022/04/24 11:22:10;;;;;;;9.15;6.40;;;;;;;24.07;24.30;100300.94;5072821;28;20039;-61
2022/04/24 11:24:37;;;;;;;7.50;6.38;;;;;;;24.30;24.55;100302.41;5073080;28;20044;-61